sensor_id;sensor_type;location;lat;lon;timestamp;temperature;humidity
9776;DHT22;4927;52.472;13.108;2024-03-06T00:00:10;-1.50;99.90
9776;DHT22;4927;52.472;13.108;2024-03-06T00:01:13;-1.50;99.90
9776;DHT22;4927;52.472;13.108;2024-03-06T00:02:15;-1.50;99.90
9776;DHT22;4927;52.472;13.108;2024-03-06T00:03:18;-1.50;99.90
9776;DHT22;4927;52.472;13.108;2024-03-06T00:04:20;-1.50;99.90
9776;DHT22;4927;52.472;13.108;2024-03-06T00:05:22;-1.50;99.90
9776;DHT22;4927;52.472;13.108;2024-03-06T00:06:24;-1.50;99.90
9776;DHT22;4927;52.472;13.108;2024-03-06T00:07:27;-1.50;99.90
9776;DHT22;4927;52.472;13.108;2024-03-06T00:08:29;-1.50;99.90
9776;DHT22;4927;52.472;13.108;2024-03-06T00:09:31;-1.50;99.90
9776;DHT22;4927;52.472;13.108;2024-03-06T00:10:33;-1.50;99.90
9776;DHT22;4927;52.472;13.108;2024-03-06T00:11:36;-1.50;99.90
9776;DHT22;4927;52.472;13.108;2024-03-06T00:12:38;-1.50;99.90
9776;DHT22;4927;52.472;13.108;2024-03-06T00:13:41;-1.50;99.90
9776;DHT22;4927;52.472;13.108;2024-03-06T00:14:50;-1.50;99.90
9776;DHT22;4927;52.472;13.108;2024-03-06T00:15:52;-1.50;99.90
9776;DHT22;4927;52.472;13.108;2024-03-06T00:16:54;-1.60;99.90
9776;DHT22;4927;52.472;13.108;2024-03-06T00:17:57;-1.60;99.90
9776;DHT22;4927;52.472;13.108;2024-03-06T00:19:00;-1.60;99.90
9776;DHT22;4927;52.472;13.108;2024-03-06T00:20:02;-1.60;99.90
9776;DHT22;4927;52.472;13.108;2024-03-06T00:21:04;-1.60;99.90
9776;DHT22;4927;52.472;13.108;2024-03-06T00:22:07;-1.60;99.90
9776;DHT22;4927;52.472;13.108;2024-03-06T00:23:09;-1.70;99.90
9776;DHT22;4927;52.472;13.108;2024-03-06T00:24:14;-1.70;99.90
9776;DHT22;4927;52.472;13.108;2024-03-06T00:25:16;-1.70;99.90
9776;DHT22;4927;52.472;13.108;2024-03-06T00:26:18;-1.70;99.90
9776;DHT22;4927;52.472;13.108;2024-03-06T00:27:20;-1.70;99.90
9776;DHT22;4927;52.472;13.108;2024-03-06T00:28:22;-1.80;99.90
9776;DHT22;4927;52.472;13.108;2024-03-06T00:29:25;-1.80;99.90
9776;DHT22;4927;52.472;13.108;2024-03-06T00:30:27;-1.80;99.90
9776;DHT22;4927;52.472;13.108;2024-03-06T00:31:30;-1.80;99.90
9776;DHT22;4927;52.472;13.108;2024-03-06T00:32:32;-1.80;99.90
9776;DHT22;4927;52.472;13.108;2024-03-06T00:33:34;-1.80;99.90
9776;DHT22;4927;52.472;13.108;2024-03-06T00:34:37;-1.80;99.90
9776;DHT22;4927;52.472;13.108;2024-03-06T00:35:39;-1.80;99.90
9776;DHT22;4927;52.472;13.108;2024-03-06T00:36:42;-1.80;99.90
9776;DHT22;4927;52.472;13.108;2024-03-06T00:37:46;-1.80;99.90
9776;DHT22;4927;52.472;13.108;2024-03-06T00:38:48;-1.80;99.90
9776;DHT22;4927;52.472;13.108;2024-03-06T00:39:50;-1.80;99.90
9776;DHT22;4927;52.472;13.108;2024-03-06T00:40:53;-1.80;99.90
9776;DHT22;4927;52.472;13.108;2024-03-06T00:41:55;-1.80;99.90
9776;DHT22;4927;52.472;13.108;2024-03-06T00:42:57;-1.80;99.90
9776;DHT22;4927;52.472;13.108;2024-03-06T00:44:00;-1.80;99.90
9776;DHT22;4927;52.472;13.108;2024-03-06T00:45:03;-1.80;99.90
9776;DHT22;4927;52.472;13.108;2024-03-06T00:46:06;-1.80;99.90
9776;DHT22;4927;52.472;13.108;2024-03-06T00:47:09;-1.80;99.90
9776;DHT22;4927;52.472;13.108;2024-03-06T00:48:11;-1.90;99.90
9776;DHT22;4927;52.472;13.108;2024-03-06T00:49:13;-1.90;99.90
9776;DHT22;4927;52.472;13.108;2024-03-06T00:50:16;-1.90;99.90
9776;DHT22;4927;52.472;13.108;2024-03-06T00:51:18;-1.90;99.90
9776;DHT22;4927;52.472;13.108;2024-03-06T00:52:20;-1.90;99.90
9776;DHT22;4927;52.472;13.108;2024-03-06T00:53:22;-1.90;99.90
9776;DHT22;4927;52.472;13.108;2024-03-06T00:54:25;-1.90;99.90
9776;DHT22;4927;52.472;13.108;2024-03-06T00:55:27;-1.80;99.90
9776;DHT22;4927;52.472;13.108;2024-03-06T00:56:30;-1.80;99.90
9776;DHT22;4927;52.472;13.108;2024-03-06T00:57:32;-1.80;99.90
9776;DHT22;4927;52.472;13.108;2024-03-06T00:58:35;-1.90;99.90
9776;DHT22;4927;52.472;13.108;2024-03-06T00:59:37;-1.80;99.90
9776;DHT22;4927;52.472;13.108;2024-03-06T01:00:40;-1.80;99.90
9776;DHT22;4927;52.472;13.108;2024-03-06T01:01:42;-1.90;99.90
9776;DHT22;4927;52.472;13.108;2024-03-06T01:02:45;-1.90;99.90
9776;DHT22;4927;52.472;13.108;2024-03-06T01:03:47;-1.90;99.90
9776;DHT22;4927;52.472;13.108;2024-03-06T01:04:49;-1.90;99.90
9776;DHT22;4927;52.472;13.108;2024-03-06T01:05:52;-1.90;99.90
9776;DHT22;4927;52.472;13.108;2024-03-06T01:06:55;-1.90;99.90
9776;DHT22;4927;52.472;13.108;2024-03-06T01:07:59;-1.90;99.90
9776;DHT22;4927;52.472;13.108;2024-03-06T01:09:06;-1.90;99.90
9776;DHT22;4927;52.472;13.108;2024-03-06T01:10:16;-1.90;99.90
9776;DHT22;4927;52.472;13.108;2024-03-06T01:11:28;-1.90;99.90
9776;DHT22;4927;52.472;13.108;2024-03-06T01:12:30;-1.90;99.90
9776;DHT22;4927;52.472;13.108;2024-03-06T01:13:35;-1.90;99.90
9776;DHT22;4927;52.472;13.108;2024-03-06T01:14:39;-1.90;99.90
9776;DHT22;4927;52.472;13.108;2024-03-06T01:15:41;-2.00;99.90
9776;DHT22;4927;52.472;13.108;2024-03-06T01:16:44;-2.00;99.90
9776;DHT22;4927;52.472;13.108;2024-03-06T01:17:46;-2.00;99.90
9776;DHT22;4927;52.472;13.108;2024-03-06T01:18:48;-2.00;99.90
9776;DHT22;4927;52.472;13.108;2024-03-06T01:19:51;-2.00;99.90
9776;DHT22;4927;52.472;13.108;2024-03-06T01:20:53;-2.00;99.90
9776;DHT22;4927;52.472;13.108;2024-03-06T01:21:55;-2.00;99.90
9776;DHT22;4927;52.472;13.108;2024-03-06T01:22:57;-2.00;99.90
9776;DHT22;4927;52.472;13.108;2024-03-06T01:24:00;-2.00;99.90
9776;DHT22;4927;52.472;13.108;2024-03-06T01:25:03;-2.00;99.90
9776;DHT22;4927;52.472;13.108;2024-03-06T01:26:05;-2.00;99.90
9776;DHT22;4927;52.472;13.108;2024-03-06T01:27:09;-1.90;99.90
9776;DHT22;4927;52.472;13.108;2024-03-06T01:28:11;-2.00;99.90
9776;DHT22;4927;52.472;13.108;2024-03-06T01:29:13;-2.00;99.90
9776;DHT22;4927;52.472;13.108;2024-03-06T01:30:16;-2.00;99.90
9776;DHT22;4927;52.472;13.108;2024-03-06T01:31:18;-2.00;99.90
9776;DHT22;4927;52.472;13.108;2024-03-06T01:32:20;-2.00;99.90
9776;DHT22;4927;52.472;13.108;2024-03-06T01:33:23;-1.90;99.90
9776;DHT22;4927;52.472;13.108;2024-03-06T01:34:26;-1.90;99.90
9776;DHT22;4927;52.472;13.108;2024-03-06T01:35:28;-2.00;99.90
9776;DHT22;4927;52.472;13.108;2024-03-06T01:36:30;-2.00;99.90
9776;DHT22;4927;52.472;13.108;2024-03-06T01:37:32;-2.00;99.90
9776;DHT22;4927;52.472;13.108;2024-03-06T01:38:34;-2.00;99.90
9776;DHT22;4927;52.472;13.108;2024-03-06T01:39:36;-2.00;99.90
9776;DHT22;4927;52.472;13.108;2024-03-06T01:40:42;-2.00;99.90
9776;DHT22;4927;52.472;13.108;2024-03-06T01:41:48;-2.00;99.90
9776;DHT22;4927;52.472;13.108;2024-03-06T01:42:50;-2.00;99.90
9776;DHT22;4927;52.472;13.108;2024-03-06T01:43:53;-2.10;99.90
9776;DHT22;4927;52.472;13.108;2024-03-06T01:44:55;-2.10;99.90
9776;DHT22;4927;52.472;13.108;2024-03-06T01:45:57;-2.10;99.90
9776;DHT22;4927;52.472;13.108;2024-03-06T01:47:00;-2.10;99.90
9776;DHT22;4927;52.472;13.108;2024-03-06T01:48:02;-2.10;99.90
9776;DHT22;4927;52.472;13.108;2024-03-06T01:49:05;-2.10;99.90
9776;DHT22;4927;52.472;13.108;2024-03-06T01:50:08;-2.10;99.90
9776;DHT22;4927;52.472;13.108;2024-03-06T01:51:10;-2.10;99.90
9776;DHT22;4927;52.472;13.108;2024-03-06T01:52:16;-2.10;99.90
9776;DHT22;4927;52.472;13.108;2024-03-06T01:53:22;-2.10;99.90
9776;DHT22;4927;52.472;13.108;2024-03-06T01:54:25;-2.10;99.90
9776;DHT22;4927;52.472;13.108;2024-03-06T01:55:27;-2.10;99.90
9776;DHT22;4927;52.472;13.108;2024-03-06T01:56:31;-2.10;99.90
9776;DHT22;4927;52.472;13.108;2024-03-06T01:57:32;-2.10;99.90
9776;DHT22;4927;52.472;13.108;2024-03-06T01:58:35;-2.20;99.90
9776;DHT22;4927;52.472;13.108;2024-03-06T01:59:37;-2.20;99.90
9776;DHT22;4927;52.472;13.108;2024-03-06T02:00:39;-2.20;99.90
9776;DHT22;4927;52.472;13.108;2024-03-06T02:01:41;-2.20;99.90
9776;DHT22;4927;52.472;13.108;2024-03-06T02:02:44;-2.20;99.90
9776;DHT22;4927;52.472;13.108;2024-03-06T02:03:47;-2.20;99.90
9776;DHT22;4927;52.472;13.108;2024-03-06T02:04:49;-2.30;99.90
9776;DHT22;4927;52.472;13.108;2024-03-06T02:05:51;-2.30;99.90
9776;DHT22;4927;52.472;13.108;2024-03-06T02:06:54;-2.30;99.90
9776;DHT22;4927;52.472;13.108;2024-03-06T02:07:58;-2.30;99.90
9776;DHT22;4927;52.472;13.108;2024-03-06T02:09:00;-2.30;99.90
9776;DHT22;4927;52.472;13.108;2024-03-06T02:10:03;-2.30;99.90
9776;DHT22;4927;52.472;13.108;2024-03-06T02:11:06;-2.30;99.90
9776;DHT22;4927;52.472;13.108;2024-03-06T02:12:09;-2.20;99.90
9776;DHT22;4927;52.472;13.108;2024-03-06T02:13:13;-2.30;99.90
9776;DHT22;4927;52.472;13.108;2024-03-06T02:14:17;-2.30;99.90
9776;DHT22;4927;52.472;13.108;2024-03-06T02:15:23;-2.30;99.90
9776;DHT22;4927;52.472;13.108;2024-03-06T02:16:27;-2.30;99.90
9776;DHT22;4927;52.472;13.108;2024-03-06T02:17:31;-2.30;99.90
9776;DHT22;4927;52.472;13.108;2024-03-06T02:18:36;-2.30;99.90
9776;DHT22;4927;52.472;13.108;2024-03-06T02:19:41;-2.30;99.90
9776;DHT22;4927;52.472;13.108;2024-03-06T02:20:45;-2.30;99.90
9776;DHT22;4927;52.472;13.108;2024-03-06T02:21:47;-2.30;99.90
9776;DHT22;4927;52.472;13.108;2024-03-06T02:22:49;-2.30;99.90
9776;DHT22;4927;52.472;13.108;2024-03-06T02:23:52;-2.30;99.90
9776;DHT22;4927;52.472;13.108;2024-03-06T02:24:55;-2.30;99.90
9776;DHT22;4927;52.472;13.108;2024-03-06T02:25:57;-2.30;99.90
9776;DHT22;4927;52.472;13.108;2024-03-06T02:27:00;-2.30;99.90
9776;DHT22;4927;52.472;13.108;2024-03-06T02:28:03;-2.30;99.90
9776;DHT22;4927;52.472;13.108;2024-03-06T02:29:06;-2.30;99.90
9776;DHT22;4927;52.472;13.108;2024-03-06T02:30:10;-2.40;99.90
9776;DHT22;4927;52.472;13.108;2024-03-06T02:31:12;-2.30;99.90
9776;DHT22;4927;52.472;13.108;2024-03-06T02:32:15;-2.30;99.90
9776;DHT22;4927;52.472;13.108;2024-03-06T02:33:18;-2.30;99.90
9776;DHT22;4927;52.472;13.108;2024-03-06T02:34:20;-2.40;99.90
9776;DHT22;4927;52.472;13.108;2024-03-06T02:35:23;-2.40;99.90
9776;DHT22;4927;52.472;13.108;2024-03-06T02:36:25;-2.40;99.90
9776;DHT22;4927;52.472;13.108;2024-03-06T02:37:27;-2.40;99.90
9776;DHT22;4927;52.472;13.108;2024-03-06T02:38:37;-2.40;99.90
9776;DHT22;4927;52.472;13.108;2024-03-06T02:39:40;-2.40;99.90
9776;DHT22;4927;52.472;13.108;2024-03-06T02:40:43;-2.50;99.90
9776;DHT22;4927;52.472;13.108;2024-03-06T02:41:44;-2.50;99.90
9776;DHT22;4927;52.472;13.108;2024-03-06T02:42:46;-2.50;99.90
9776;DHT22;4927;52.472;13.108;2024-03-06T02:43:49;-2.50;99.90
9776;DHT22;4927;52.472;13.108;2024-03-06T02:44:52;-2.50;99.90
9776;DHT22;4927;52.472;13.108;2024-03-06T02:45:55;-2.50;99.90
9776;DHT22;4927;52.472;13.108;2024-03-06T02:46:57;-2.50;99.90
9776;DHT22;4927;52.472;13.108;2024-03-06T02:47:59;-2.50;99.90
9776;DHT22;4927;52.472;13.108;2024-03-06T02:49:01;-2.50;99.90
9776;DHT22;4927;52.472;13.108;2024-03-06T02:50:04;-2.50;99.90
9776;DHT22;4927;52.472;13.108;2024-03-06T02:51:08;-2.50;99.90
9776;DHT22;4927;52.472;13.108;2024-03-06T02:52:10;-2.50;99.90
9776;DHT22;4927;52.472;13.108;2024-03-06T02:53:13;-2.50;99.90
9776;DHT22;4927;52.472;13.108;2024-03-06T02:54:15;-2.50;99.90
9776;DHT22;4927;52.472;13.108;2024-03-06T02:55:18;-2.50;99.90
9776;DHT22;4927;52.472;13.108;2024-03-06T02:56:21;-2.50;99.90
9776;DHT22;4927;52.472;13.108;2024-03-06T02:57:26;-2.50;99.90
9776;DHT22;4927;52.472;13.108;2024-03-06T02:58:26;-2.50;99.90
9776;DHT22;4927;52.472;13.108;2024-03-06T02:59:28;-2.50;99.90
9776;DHT22;4927;52.472;13.108;2024-03-06T03:00:31;-2.60;99.90
9776;DHT22;4927;52.472;13.108;2024-03-06T03:01:33;-2.60;99.90
9776;DHT22;4927;52.472;13.108;2024-03-06T03:02:35;-2.50;99.90
9776;DHT22;4927;52.472;13.108;2024-03-06T03:03:40;-2.50;99.90
9776;DHT22;4927;52.472;13.108;2024-03-06T03:04:40;-2.50;99.90
9776;DHT22;4927;52.472;13.108;2024-03-06T03:05:42;-2.60;99.90
9776;DHT22;4927;52.472;13.108;2024-03-06T03:06:45;-2.50;99.90
9776;DHT22;4927;52.472;13.108;2024-03-06T03:07:47;-2.50;99.90
9776;DHT22;4927;52.472;13.108;2024-03-06T03:08:50;-2.50;99.90
9776;DHT22;4927;52.472;13.108;2024-03-06T03:09:53;-2.60;99.90
9776;DHT22;4927;52.472;13.108;2024-03-06T03:10:55;-2.60;99.90
9776;DHT22;4927;52.472;13.108;2024-03-06T03:11:57;-2.50;99.90
9776;DHT22;4927;52.472;13.108;2024-03-06T03:13:00;-2.60;99.90
9776;DHT22;4927;52.472;13.108;2024-03-06T03:14:03;-2.60;99.90
9776;DHT22;4927;52.472;13.108;2024-03-06T03:15:05;-2.60;99.90
9776;DHT22;4927;52.472;13.108;2024-03-06T03:17:18;-2.60;99.90
9776;DHT22;4927;52.472;13.108;2024-03-06T03:18:20;-2.60;99.90
9776;DHT22;4927;52.472;13.108;2024-03-06T03:19:22;-2.60;99.90
9776;DHT22;4927;52.472;13.108;2024-03-06T03:20:24;-2.60;99.90
9776;DHT22;4927;52.472;13.108;2024-03-06T03:21:26;-2.60;99.90
9776;DHT22;4927;52.472;13.108;2024-03-06T03:22:29;-2.60;99.90
9776;DHT22;4927;52.472;13.108;2024-03-06T03:23:31;-2.60;99.90
9776;DHT22;4927;52.472;13.108;2024-03-06T03:24:34;-2.70;99.90
9776;DHT22;4927;52.472;13.108;2024-03-06T03:25:36;-2.70;99.90
9776;DHT22;4927;52.472;13.108;2024-03-06T03:26:38;-2.70;99.90
9776;DHT22;4927;52.472;13.108;2024-03-06T03:27:41;-2.70;99.90
9776;DHT22;4927;52.472;13.108;2024-03-06T03:28:43;-2.70;99.90
9776;DHT22;4927;52.472;13.108;2024-03-06T03:29:45;-2.70;99.90
9776;DHT22;4927;52.472;13.108;2024-03-06T03:30:47;-2.70;99.90
9776;DHT22;4927;52.472;13.108;2024-03-06T03:31:49;-2.70;99.90
9776;DHT22;4927;52.472;13.108;2024-03-06T03:32:52;-2.70;99.90
9776;DHT22;4927;52.472;13.108;2024-03-06T03:33:54;-2.70;99.90
9776;DHT22;4927;52.472;13.108;2024-03-06T03:34:57;-2.70;99.90
9776;DHT22;4927;52.472;13.108;2024-03-06T03:35:59;-2.70;99.90
9776;DHT22;4927;52.472;13.108;2024-03-06T03:37:02;-2.70;99.90
9776;DHT22;4927;52.472;13.108;2024-03-06T03:38:05;-2.70;99.90
9776;DHT22;4927;52.472;13.108;2024-03-06T03:39:10;-2.70;99.90
9776;DHT22;4927;52.472;13.108;2024-03-06T03:40:15;-2.70;99.90
9776;DHT22;4927;52.472;13.108;2024-03-06T03:41:17;-2.80;99.90
9776;DHT22;4927;52.472;13.108;2024-03-06T03:42:21;-2.80;99.90
9776;DHT22;4927;52.472;13.108;2024-03-06T03:43:23;-2.70;99.90
9776;DHT22;4927;52.472;13.108;2024-03-06T03:44:25;-2.80;99.90
9776;DHT22;4927;52.472;13.108;2024-03-06T03:45:28;-2.70;99.90
9776;DHT22;4927;52.472;13.108;2024-03-06T03:46:30;-2.80;99.90
9776;DHT22;4927;52.472;13.108;2024-03-06T03:47:33;-2.70;99.90
9776;DHT22;4927;52.472;13.108;2024-03-06T03:48:38;-2.70;99.90
9776;DHT22;4927;52.472;13.108;2024-03-06T03:49:40;-2.70;99.90
9776;DHT22;4927;52.472;13.108;2024-03-06T03:50:43;-2.70;99.90
9776;DHT22;4927;52.472;13.108;2024-03-06T03:51:45;-2.70;99.90
9776;DHT22;4927;52.472;13.108;2024-03-06T03:52:47;-2.70;99.90
9776;DHT22;4927;52.472;13.108;2024-03-06T03:53:49;-2.70;99.90
9776;DHT22;4927;52.472;13.108;2024-03-06T03:54:52;-2.70;99.90
9776;DHT22;4927;52.472;13.108;2024-03-06T03:55:55;-2.70;99.90
9776;DHT22;4927;52.472;13.108;2024-03-06T03:56:57;-2.70;99.90
9776;DHT22;4927;52.472;13.108;2024-03-06T03:58:01;-2.70;99.90
9776;DHT22;4927;52.472;13.108;2024-03-06T03:59:03;-2.70;99.90
9776;DHT22;4927;52.472;13.108;2024-03-06T04:00:06;-2.70;99.90
9776;DHT22;4927;52.472;13.108;2024-03-06T04:01:10;-2.80;99.90
9776;DHT22;4927;52.472;13.108;2024-03-06T04:02:11;-2.70;99.90
9776;DHT22;4927;52.472;13.108;2024-03-06T04:03:13;-2.80;99.90
9776;DHT22;4927;52.472;13.108;2024-03-06T04:04:15;-2.80;99.90
9776;DHT22;4927;52.472;13.108;2024-03-06T04:05:18;-2.80;99.90
9776;DHT22;4927;52.472;13.108;2024-03-06T04:06:21;-2.80;99.90
9776;DHT22;4927;52.472;13.108;2024-03-06T04:07:23;-2.80;99.90
9776;DHT22;4927;52.472;13.108;2024-03-06T04:08:25;-2.80;99.90
9776;DHT22;4927;52.472;13.108;2024-03-06T04:09:28;-2.80;99.90
9776;DHT22;4927;52.472;13.108;2024-03-06T04:10:30;-2.80;99.90
9776;DHT22;4927;52.472;13.108;2024-03-06T04:11:33;-2.80;99.90
9776;DHT22;4927;52.472;13.108;2024-03-06T04:12:36;-2.80;99.90
9776;DHT22;4927;52.472;13.108;2024-03-06T04:13:39;-2.80;99.90
9776;DHT22;4927;52.472;13.108;2024-03-06T04:14:41;-2.80;99.90
9776;DHT22;4927;52.472;13.108;2024-03-06T04:15:43;-2.80;99.90
9776;DHT22;4927;52.472;13.108;2024-03-06T04:16:46;-2.80;99.90
9776;DHT22;4927;52.472;13.108;2024-03-06T04:17:48;-2.90;99.90
9776;DHT22;4927;52.472;13.108;2024-03-06T04:18:51;-2.90;99.90
9776;DHT22;4927;52.472;13.108;2024-03-06T04:19:54;-2.90;99.90
9776;DHT22;4927;52.472;13.108;2024-03-06T04:20:57;-2.90;99.90
9776;DHT22;4927;52.472;13.108;2024-03-06T04:22:00;-2.90;99.90
9776;DHT22;4927;52.472;13.108;2024-03-06T04:23:02;-2.90;99.90
9776;DHT22;4927;52.472;13.108;2024-03-06T04:24:05;-2.90;99.90
9776;DHT22;4927;52.472;13.108;2024-03-06T04:25:08;-2.90;99.90
9776;DHT22;4927;52.472;13.108;2024-03-06T04:26:11;-2.90;99.90
9776;DHT22;4927;52.472;13.108;2024-03-06T04:27:14;-2.90;99.90
9776;DHT22;4927;52.472;13.108;2024-03-06T04:28:17;-2.90;99.90
9776;DHT22;4927;52.472;13.108;2024-03-06T04:29:19;-2.90;99.90
9776;DHT22;4927;52.472;13.108;2024-03-06T04:30:22;-2.90;99.90
9776;DHT22;4927;52.472;13.108;2024-03-06T04:31:24;-2.90;99.90
9776;DHT22;4927;52.472;13.108;2024-03-06T04:32:26;-2.90;99.90
9776;DHT22;4927;52.472;13.108;2024-03-06T04:33:29;-2.90;99.90
9776;DHT22;4927;52.472;13.108;2024-03-06T04:34:31;-2.90;99.90
9776;DHT22;4927;52.472;13.108;2024-03-06T04:35:33;-2.90;99.90
9776;DHT22;4927;52.472;13.108;2024-03-06T04:36:35;-2.90;99.90
9776;DHT22;4927;52.472;13.108;2024-03-06T04:37:37;-2.90;99.90
9776;DHT22;4927;52.472;13.108;2024-03-06T04:38:39;-2.90;99.90
9776;DHT22;4927;52.472;13.108;2024-03-06T04:39:42;-2.90;99.90
9776;DHT22;4927;52.472;13.108;2024-03-06T04:40:44;-2.90;99.90
9776;DHT22;4927;52.472;13.108;2024-03-06T04:41:46;-3.00;99.90
9776;DHT22;4927;52.472;13.108;2024-03-06T04:42:48;-3.00;99.90
9776;DHT22;4927;52.472;13.108;2024-03-06T04:43:51;-3.00;99.90
9776;DHT22;4927;52.472;13.108;2024-03-06T04:44:53;-3.00;99.90
9776;DHT22;4927;52.472;13.108;2024-03-06T04:45:55;-2.90;99.90
9776;DHT22;4927;52.472;13.108;2024-03-06T04:46:57;-3.00;99.90
9776;DHT22;4927;52.472;13.108;2024-03-06T04:47:59;-3.00;99.90
9776;DHT22;4927;52.472;13.108;2024-03-06T04:49:02;-3.00;99.90
9776;DHT22;4927;52.472;13.108;2024-03-06T04:50:08;-3.00;99.90
9776;DHT22;4927;52.472;13.108;2024-03-06T04:51:07;-3.00;99.90
9776;DHT22;4927;52.472;13.108;2024-03-06T04:52:10;-3.00;99.90
9776;DHT22;4927;52.472;13.108;2024-03-06T04:53:12;-3.00;99.90
9776;DHT22;4927;52.472;13.108;2024-03-06T04:54:15;-3.00;99.90
9776;DHT22;4927;52.472;13.108;2024-03-06T04:55:17;-3.00;99.90
9776;DHT22;4927;52.472;13.108;2024-03-06T04:56:20;-3.10;99.90
9776;DHT22;4927;52.472;13.108;2024-03-06T04:57:22;-3.10;99.90
9776;DHT22;4927;52.472;13.108;2024-03-06T04:58:25;-3.10;99.90
9776;DHT22;4927;52.472;13.108;2024-03-06T04:59:27;-3.10;99.90
9776;DHT22;4927;52.472;13.108;2024-03-06T05:00:30;-3.10;99.90
9776;DHT22;4927;52.472;13.108;2024-03-06T05:01:32;-3.10;99.90
9776;DHT22;4927;52.472;13.108;2024-03-06T05:02:34;-3.10;99.90
9776;DHT22;4927;52.472;13.108;2024-03-06T05:03:43;-3.10;99.90
9776;DHT22;4927;52.472;13.108;2024-03-06T05:04:52;-3.10;99.90
9776;DHT22;4927;52.472;13.108;2024-03-06T05:06:00;-3.10;99.90
9776;DHT22;4927;52.472;13.108;2024-03-06T05:07:09;-3.10;99.90
9776;DHT22;4927;52.472;13.108;2024-03-06T05:08:18;-3.10;99.90
9776;DHT22;4927;52.472;13.108;2024-03-06T05:09:27;-3.10;99.90
9776;DHT22;4927;52.472;13.108;2024-03-06T05:10:36;-3.10;99.90
9776;DHT22;4927;52.472;13.108;2024-03-06T05:11:44;-3.10;99.90
9776;DHT22;4927;52.472;13.108;2024-03-06T05:12:54;-3.10;99.90
9776;DHT22;4927;52.472;13.108;2024-03-06T05:14:03;-3.20;99.90
9776;DHT22;4927;52.472;13.108;2024-03-06T05:15:14;-3.20;99.90
9776;DHT22;4927;52.472;13.108;2024-03-06T05:16:25;-3.20;99.90
9776;DHT22;4927;52.472;13.108;2024-03-06T05:17:34;-3.20;99.90
9776;DHT22;4927;52.472;13.108;2024-03-06T05:18:43;-3.20;99.90
9776;DHT22;4927;52.472;13.108;2024-03-06T05:19:53;-3.20;99.90
9776;DHT22;4927;52.472;13.108;2024-03-06T05:21:01;-3.20;99.90
9776;DHT22;4927;52.472;13.108;2024-03-06T05:22:10;-3.20;99.90
9776;DHT22;4927;52.472;13.108;2024-03-06T05:23:19;-3.30;99.90
9776;DHT22;4927;52.472;13.108;2024-03-06T05:24:28;-3.20;99.90
9776;DHT22;4927;52.472;13.108;2024-03-06T05:25:36;-3.20;99.90
9776;DHT22;4927;52.472;13.108;2024-03-06T05:26:44;-3.30;99.90
9776;DHT22;4927;52.472;13.108;2024-03-06T05:27:53;-3.20;99.90
9776;DHT22;4927;52.472;13.108;2024-03-06T05:29:01;-3.30;99.90
9776;DHT22;4927;52.472;13.108;2024-03-06T05:30:10;-3.20;99.90
9776;DHT22;4927;52.472;13.108;2024-03-06T05:31:19;-3.20;99.90
9776;DHT22;4927;52.472;13.108;2024-03-06T05:32:27;-3.20;99.90
9776;DHT22;4927;52.472;13.108;2024-03-06T05:33:36;-3.20;99.90
9776;DHT22;4927;52.472;13.108;2024-03-06T05:34:45;-3.20;99.90
9776;DHT22;4927;52.472;13.108;2024-03-06T05:35:53;-3.20;99.90
9776;DHT22;4927;52.472;13.108;2024-03-06T05:37:01;-3.20;99.90
9776;DHT22;4927;52.472;13.108;2024-03-06T05:38:09;-3.20;99.90
9776;DHT22;4927;52.472;13.108;2024-03-06T05:39:17;-3.20;99.90
9776;DHT22;4927;52.472;13.108;2024-03-06T05:40:25;-3.20;99.90
9776;DHT22;4927;52.472;13.108;2024-03-06T05:41:34;-3.20;99.90
9776;DHT22;4927;52.472;13.108;2024-03-06T05:42:43;-3.20;99.90
9776;DHT22;4927;52.472;13.108;2024-03-06T05:43:51;-3.20;99.90
9776;DHT22;4927;52.472;13.108;2024-03-06T05:44:59;-3.20;99.90
9776;DHT22;4927;52.472;13.108;2024-03-06T05:46:09;-3.20;99.90
9776;DHT22;4927;52.472;13.108;2024-03-06T05:47:17;-3.20;99.90
9776;DHT22;4927;52.472;13.108;2024-03-06T05:48:25;-3.20;99.90
9776;DHT22;4927;52.472;13.108;2024-03-06T05:49:34;-3.20;99.90
9776;DHT22;4927;52.472;13.108;2024-03-06T05:50:42;-3.30;99.90
9776;DHT22;4927;52.472;13.108;2024-03-06T05:51:50;-3.30;99.90
9776;DHT22;4927;52.472;13.108;2024-03-06T05:52:59;-3.30;99.90
9776;DHT22;4927;52.472;13.108;2024-03-06T05:54:08;-3.30;99.90
9776;DHT22;4927;52.472;13.108;2024-03-06T05:55:16;-3.30;99.90
9776;DHT22;4927;52.472;13.108;2024-03-06T05:56:24;-3.30;99.90
9776;DHT22;4927;52.472;13.108;2024-03-06T05:57:32;-3.30;99.90
9776;DHT22;4927;52.472;13.108;2024-03-06T05:58:41;-3.30;99.90
9776;DHT22;4927;52.472;13.108;2024-03-06T05:59:43;-3.20;99.90
9776;DHT22;4927;52.472;13.108;2024-03-06T06:00:45;-3.20;99.90
9776;DHT22;4927;52.472;13.108;2024-03-06T06:01:48;-3.20;99.90
9776;DHT22;4927;52.472;13.108;2024-03-06T06:02:50;-3.20;99.90
9776;DHT22;4927;52.472;13.108;2024-03-06T06:03:52;-3.20;99.90
9776;DHT22;4927;52.472;13.108;2024-03-06T06:04:54;-3.20;99.90
9776;DHT22;4927;52.472;13.108;2024-03-06T06:05:57;-3.20;99.90
9776;DHT22;4927;52.472;13.108;2024-03-06T06:06:59;-3.20;99.90
9776;DHT22;4927;52.472;13.108;2024-03-06T06:08:01;-3.20;99.90
9776;DHT22;4927;52.472;13.108;2024-03-06T06:09:03;-3.20;99.90
9776;DHT22;4927;52.472;13.108;2024-03-06T06:10:07;-3.20;99.90
9776;DHT22;4927;52.472;13.108;2024-03-06T06:11:10;-3.20;99.90
9776;DHT22;4927;52.472;13.108;2024-03-06T06:12:12;-3.20;99.90
9776;DHT22;4927;52.472;13.108;2024-03-06T06:13:14;-3.20;99.90
9776;DHT22;4927;52.472;13.108;2024-03-06T06:14:16;-3.30;99.90
9776;DHT22;4927;52.472;13.108;2024-03-06T06:15:18;-3.30;99.90
9776;DHT22;4927;52.472;13.108;2024-03-06T06:16:20;-3.30;99.90
9776;DHT22;4927;52.472;13.108;2024-03-06T06:17:23;-3.20;99.90
9776;DHT22;4927;52.472;13.108;2024-03-06T06:18:25;-3.20;99.90
9776;DHT22;4927;52.472;13.108;2024-03-06T06:19:28;-3.20;99.90
9776;DHT22;4927;52.472;13.108;2024-03-06T06:20:30;-3.20;99.90
9776;DHT22;4927;52.472;13.108;2024-03-06T06:21:32;-3.20;99.90
9776;DHT22;4927;52.472;13.108;2024-03-06T06:22:34;-3.20;99.90
9776;DHT22;4927;52.472;13.108;2024-03-06T06:23:36;-3.20;99.90
9776;DHT22;4927;52.472;13.108;2024-03-06T06:24:39;-3.10;99.90
9776;DHT22;4927;52.472;13.108;2024-03-06T06:25:41;-3.20;99.90
9776;DHT22;4927;52.472;13.108;2024-03-06T06:26:44;-3.10;99.90
9776;DHT22;4927;52.472;13.108;2024-03-06T06:27:46;-3.10;99.90
9776;DHT22;4927;52.472;13.108;2024-03-06T06:28:48;-3.10;99.90
9776;DHT22;4927;52.472;13.108;2024-03-06T06:29:51;-3.10;99.90
9776;DHT22;4927;52.472;13.108;2024-03-06T06:30:53;-3.10;99.90
9776;DHT22;4927;52.472;13.108;2024-03-06T06:31:55;-3.10;99.90
9776;DHT22;4927;52.472;13.108;2024-03-06T06:32:57;-3.00;99.90
9776;DHT22;4927;52.472;13.108;2024-03-06T06:34:00;-3.00;99.90
9776;DHT22;4927;52.472;13.108;2024-03-06T06:35:02;-3.00;99.90
9776;DHT22;4927;52.472;13.108;2024-03-06T06:36:05;-3.00;99.90
9776;DHT22;4927;52.472;13.108;2024-03-06T06:37:07;-2.90;99.90
9776;DHT22;4927;52.472;13.108;2024-03-06T06:38:10;-2.90;99.90
9776;DHT22;4927;52.472;13.108;2024-03-06T06:39:12;-2.90;99.90
9776;DHT22;4927;52.472;13.108;2024-03-06T06:40:15;-2.80;99.90
9776;DHT22;4927;52.472;13.108;2024-03-06T06:41:17;-2.90;99.90
9776;DHT22;4927;52.472;13.108;2024-03-06T06:42:20;-2.80;99.90
9776;DHT22;4927;52.472;13.108;2024-03-06T06:43:22;-2.80;99.90
9776;DHT22;4927;52.472;13.108;2024-03-06T06:44:25;-2.80;99.90
9776;DHT22;4927;52.472;13.108;2024-03-06T06:45:27;-2.80;99.90
9776;DHT22;4927;52.472;13.108;2024-03-06T06:46:29;-2.70;99.90
9776;DHT22;4927;52.472;13.108;2024-03-06T06:47:31;-2.70;99.90